createdAt,value
2022-10-02T00:02:24.346Z,59.09
2022-10-02T00:04:57.752Z,58.69
2022-10-02T00:08:03.816Z,59.03
2022-10-02T00:10:44.665Z,58.84
2022-10-02T00:13:23.507Z,59.12
2022-10-02T00:15:50.760Z,58.93
2022-10-02T00:18:23.685Z,59.07
2022-10-02T00:21:16.528Z,58.96
2022-10-02T00:23:56.898Z,59.18
2022-10-02T00:26:29.385Z,58.95
2022-10-02T00:29:25.074Z,59.03
2022-10-02T00:32:16.646Z,59.09
2022-10-02T00:34:59.569Z,59.09
2022-10-02T00:37:35.169Z,59.07
2022-10-02T00:40:31.839Z,59.12
2022-10-02T00:43:11.743Z,58.68
2022-10-02T00:45:58.497Z,58.67
2022-10-02T00:48:28.075Z,58.61
2022-10-02T00:51:06.714Z,58.97
2022-10-02T00:54:09.634Z,58.71
2022-10-02T00:56:54.626Z,58.80
2022-10-02T01:00:08.652Z,58.83
2022-10-02T01:02:43.770Z,58.81
2022-10-02T01:05:11.341Z,58.54
2022-10-02T01:07:43.374Z,58.52
2022-10-02T01:10:12.857Z,58.89
2022-10-02T01:12:40.207Z,58.34
2022-10-02T01:15:19.518Z,58.89
2022-10-02T01:17:49.823Z,58.47
2022-10-02T01:20:20.027Z,58.44
2022-10-02T01:22:58.042Z,58.76
2022-10-02T01:25:26.613Z,58.65
2022-10-02T01:27:54.511Z,58.32
2022-10-02T01:30:21.754Z,58.29
2022-10-02T01:32:59.674Z,58.29
2022-10-02T01:35:33.878Z,58.56
2022-10-02T01:38:03.894Z,58.46
2022-10-02T01:40:35.428Z,58.43
2022-10-02T01:43:06.756Z,58.60
2022-10-02T01:45:50.974Z,58.65
2022-10-02T01:48:25.330Z,58.37
2022-10-02T01:51:08.158Z,58.93
2022-10-02T01:54:07.043Z,59.01
2022-10-02T01:56:48.822Z,58.74
2022-10-02T01:59:22.825Z,58.81
2022-10-02T02:02:04.999Z,59.10
2022-10-02T02:04:52.401Z,59.24
2022-10-02T02:07:40.283Z,59.45
2022-10-02T02:10:14.011Z,59.62
2022-10-02T02:12:45.357Z,59.45
2022-10-02T02:15:31.050Z,59.95
2022-10-02T02:18:14.293Z,60.00
2022-10-02T02:20:47.064Z,59.78
2022-10-02T02:23:31.083Z,60.01
2022-10-02T02:26:07.128Z,60.03
2022-10-02T02:28:36.282Z,59.88
2022-10-02T02:31:05.140Z,59.98
2022-10-02T02:33:58.149Z,60.58
2022-10-02T02:36:32.242Z,60.31
2022-10-02T02:39:04.985Z,60.42
2022-10-02T02:41:40.844Z,60.54
2022-10-02T02:44:18.746Z,60.39
2022-10-02T02:47:04.966Z,60.40
2022-10-02T02:50:05.610Z,60.59
2022-10-02T02:52:55.790Z,60.73
2022-10-02T02:55:45.329Z,60.92
2022-10-02T02:58:30.451Z,60.92
2022-10-02T03:00:57.181Z,60.76
2022-10-02T03:03:23.772Z,61.01
2022-10-02T03:06:02.584Z,60.99
2022-10-02T03:08:34.430Z,60.91
2022-10-02T03:11:16.967Z,61.46
2022-10-02T03:14:08.809Z,61.36
2022-10-02T03:17:09.505Z,61.48
2022-10-02T03:19:56.839Z,61.09
2022-10-02T03:22:41.538Z,61.50
2022-10-02T03:25:14.441Z,61.19
2022-10-02T03:28:02.116Z,61.53
2022-10-02T03:30:30.414Z,61.20
2022-10-02T03:33:00.902Z,61.34
2022-10-02T03:35:29.006Z,61.49
2022-10-02T03:38:00.936Z,61.29
2022-10-02T03:40:27.463Z,61.40
2022-10-02T03:42:58.240Z,61.32
2022-10-02T03:45:46.592Z,61.08
2022-10-02T03:48:12.679Z,61.42
2022-10-02T03:50:39.207Z,61.38
2022-10-02T03:53:21.198Z,61.23
2022-10-02T03:56:06.526Z,61.21
2022-10-02T03:58:34.696Z,61.24
2022-10-02T04:01:25.105Z,61.26
2022-10-02T04:04:14.992Z,61.07
2022-10-02T04:06:48.738Z,61.27
2022-10-02T04:09:37.269Z,61.45
2022-10-02T04:12:11.978Z,61.25
2022-10-02T04:14:45.054Z,61.13
2022-10-02T04:17:35.159Z,61.11
2022-10-02T04:20:12.850Z,61.28
2022-10-02T04:23:03.137Z,61.45
2022-10-02T04:25:36.943Z,61.48
2022-10-02T04:28:07.820Z,61.38
2022-10-02T04:30:34.407Z,61.35
2022-10-02T04:33:17.684Z,61.69
2022-10-02T04:36:02.545Z,61.55
2022-10-02T04:38:54.409Z,61.48
2022-10-02T04:41:27.522Z,61.43
2022-10-02T04:44:08.411Z,61.40
2022-10-02T04:47:12.563Z,61.32
2022-10-02T04:49:59.790Z,61.54
2022-10-02T04:52:38.397Z,61.28
2022-10-02T04:55:14.210Z,61.63
2022-10-02T04:57:50.108Z,61.39
2022-10-02T05:00:20.726Z,61.16
2022-10-02T05:03:11.533Z,61.31
2022-10-02T05:05:47.189Z,61.39
2022-10-02T05:08:38.585Z,61.59
2022-10-02T05:11:10.499Z,61.21
2022-10-02T05:14:18.866Z,61.58
2022-10-02T05:16:51.031Z,61.27
2022-10-02T05:19:49.381Z,61.53
2022-10-02T05:22:51.303Z,61.75
2022-10-02T05:25:47.909Z,61.41
2022-10-02T05:28:32.544Z,61.21
2022-10-02T05:31:18.118Z,61.45
2022-10-02T05:34:14.935Z,61.32
2022-10-02T05:36:59.639Z,61.45
2022-10-02T05:39:36.631Z,61.46
2022-10-02T05:42:03.082Z,61.51
2022-10-02T05:44:42.252Z,61.62
2022-10-02T05:47:22.570Z,61.86
2022-10-02T05:49:56.130Z,61.50
2022-10-02T05:52:30.081Z,61.83
2022-10-02T05:55:03.789Z,61.98
2022-10-02T05:57:38.254Z,61.56
2022-10-02T06:00:24.051Z,61.75
2022-10-02T06:03:09.367Z,61.49
2022-10-02T06:05:46.459Z,61.43
2022-10-02T06:08:18.151Z,61.87
2022-10-02T06:10:56.292Z,61.89
2022-10-02T06:13:30.053Z,61.80
2022-10-02T06:16:35.684Z,61.64
2022-10-02T06:19:29.158Z,61.68
2022-10-02T06:22:10.814Z,61.67
2022-10-02T06:24:55.335Z,62.03
2022-10-02T06:27:36.201Z,61.90
2022-10-02T06:30:05.898Z,61.88
2022-10-02T06:32:42.603Z,62.48
2022-10-02T06:35:15.555Z,62.41
2022-10-02T06:37:49.323Z,62.14
2022-10-02T06:40:19.352Z,62.14
2022-10-02T06:42:58.500Z,62.41
2022-10-02T06:45:53.393Z,62.68
2022-10-02T06:48:40.698Z,62.50
2022-10-02T06:51:29.325Z,62.41
2022-10-02T06:53:59.975Z,62.72
2022-10-02T06:56:52.822Z,63.04
2022-10-02T06:59:26.473Z,62.60
2022-10-02T07:02:00.166Z,62.86
2022-10-02T07:04:31.338Z,63.25
2022-10-02T07:07:03.210Z,62.95
2022-10-02T07:09:40.083Z,63.47
2022-10-02T07:12:22.073Z,63.63
2022-10-02T07:15:26.931Z,63.22
2022-10-02T07:18:00.513Z,63.15
2022-10-02T07:20:51.797Z,63.74
2022-10-02T07:24:02.401Z,63.59
2022-10-02T07:26:53.727Z,63.80
2022-10-02T07:29:33.117Z,63.53
2022-10-02T07:32:18.708Z,64.11
2022-10-02T07:35:22.729Z,63.99
2022-10-02T07:37:57.511Z,63.82
2022-10-02T07:40:37.526Z,63.81
2022-10-02T07:43:51.967Z,63.86
2022-10-02T07:46:59.190Z,63.98
2022-10-02T07:49:57.031Z,63.75
2022-10-02T07:52:40.546Z,63.97
2022-10-02T07:55:21.569Z,64.01
2022-10-02T07:57:57.145Z,64.13
2022-10-02T08:00:25.979Z,64.22
2022-10-02T08:03:15.730Z,64.22
2022-10-02T08:05:51.174Z,64.31
2022-10-02T08:08:25.289Z,64.37
2022-10-02T08:10:58.921Z,63.98
2022-10-02T08:13:32.832Z,64.01
2022-10-02T08:16:00.548Z,64.04
2022-10-02T08:18:35.912Z,63.80
2022-10-02T08:21:14.626Z,63.96
2022-10-02T08:23:42.856Z,63.56
2022-10-02T08:26:34.510Z,63.71
2022-10-02T08:29:16.041Z,63.60
2022-10-02T08:31:42.725Z,63.64
2022-10-02T08:34:25.327Z,63.39
2022-10-02T08:37:10.389Z,62.98
2022-10-02T08:40:14.209Z,62.95
2022-10-02T08:43:53.833Z,62.96
2022-10-02T08:46:39.328Z,63.00
2022-10-02T08:49:38.939Z,62.76
2022-10-02T08:52:27.792Z,62.73
2022-10-02T08:55:31.351Z,62.51
2022-10-02T08:58:16.574Z,62.16
2022-10-02T09:00:55.670Z,62.33
2022-10-02T09:04:00.354Z,62.34
2022-10-02T09:06:45.349Z,62.29
2022-10-02T09:09:32.092Z,62.16
2022-10-02T09:12:08.948Z,62.03
2022-10-02T09:15:03.631Z,62.01
2022-10-02T09:17:46.362Z,61.85
2022-10-02T09:20:15.804Z,61.64
2022-10-02T09:23:01.330Z,61.54
2022-10-02T09:25:40.463Z,61.01
2022-10-02T09:28:25.605Z,61.21
2022-10-02T09:31:30.107Z,61.21
2022-10-02T09:34:02.877Z,61.12
2022-10-02T09:36:46.774Z,60.95
2022-10-02T09:39:51.662Z,61.03
2022-10-02T09:42:55.782Z,60.76
2022-10-02T09:45:36.383Z,60.80
2022-10-02T09:48:35.463Z,60.51
2022-10-02T09:51:44.024Z,59.79
2022-10-02T09:54:45.437Z,59.55
2022-10-02T09:57:56.444Z,59.51
2022-10-02T10:00:46.352Z,59.13
2022-10-02T10:03:36.460Z,59.22
2022-10-02T10:06:22.128Z,58.85
2022-10-02T10:09:07.048Z,58.81
2022-10-02T10:12:14.032Z,58.84
2022-10-02T10:15:08.967Z,58.32
2022-10-02T10:17:59.498Z,58.29
2022-10-02T10:20:43.985Z,58.02
2022-10-02T10:23:35.946Z,57.80
2022-10-02T10:26:21.923Z,57.42
2022-10-02T10:29:07.558Z,56.78
2022-10-02T10:31:52.567Z,56.91
2022-10-02T10:34:57.098Z,56.65
2022-10-02T10:38:04.009Z,55.97
2022-10-02T10:40:54.495Z,55.76
2022-10-02T10:43:44.455Z,55.28
2022-10-02T10:46:32.563Z,55.00
2022-10-02T10:49:17.318Z,54.17
2022-10-02T10:52:22.124Z,54.14
2022-10-02T10:54:55.784Z,54.20
2022-10-02T10:57:28.587Z,53.82
2022-10-02T11:00:11.793Z,53.57
2022-10-02T11:02:38.287Z,53.16
2022-10-02T11:05:35.879Z,52.74
2022-10-02T11:08:21.244Z,52.67
2022-10-02T11:11:00.699Z,52.50
2022-10-02T11:14:16.423Z,52.29
2022-10-02T11:17:01.469Z,51.95
2022-10-02T11:19:51.259Z,51.49
2022-10-02T11:22:50.855Z,51.20
2022-10-02T11:25:45.527Z,51.28
2022-10-02T11:28:33.383Z,50.96
2022-10-02T11:31:11.851Z,50.70
2022-10-02T11:34:20.363Z,50.58
2022-10-02T11:37:09.761Z,50.73
2022-10-02T11:39:36.270Z,50.62
2022-10-02T11:42:26.560Z,50.49
2022-10-02T11:45:05.242Z,50.56
2022-10-02T11:48:01.499Z,50.44
2022-10-02T11:50:45.155Z,50.79
2022-10-02T11:53:11.641Z,50.87
2022-10-02T11:55:58.351Z,50.90
2022-10-02T11:58:45.221Z,50.62
2022-10-02T12:01:34.004Z,50.95
2022-10-02T12:04:19.667Z,51.10
2022-10-02T12:07:05.811Z,51.30
2022-10-02T12:10:14.715Z,51.52
2022-10-02T12:12:51.495Z,51.23
2022-10-02T12:15:40.050Z,51.58
2022-10-02T12:18:31.703Z,51.31
2022-10-02T12:21:40.884Z,51.33
2022-10-02T12:25:01.826Z,51.34
2022-10-02T12:27:45.362Z,51.42
2022-10-02T12:30:18.941Z,51.12
2022-10-02T12:33:07.343Z,50.73
2022-10-02T12:35:42.977Z,50.31
2022-10-02T12:38:12.484Z,50.43
2022-10-02T12:41:10.019Z,50.31
2022-10-02T12:44:10.431Z,50.11
2022-10-02T12:47:05.001Z,50.18
2022-10-02T12:49:50.644Z,49.55
2022-10-02T12:52:18.422Z,49.66
2022-10-02T12:55:11.122Z,49.54
2022-10-02T12:57:52.777Z,49.33
2022-10-02T13:00:22.229Z,49.27
2022-10-02T13:03:05.545Z,49.33
2022-10-02T13:06:10.762Z,48.98
2022-10-02T13:09:05.180Z,48.83
2022-10-02T13:12:02.693Z,48.83
2022-10-02T13:14:47.657Z,48.45
2022-10-02T13:17:27.126Z,48.31
2022-10-02T13:19:58.773Z,48.30
2022-10-02T13:22:46.843Z,48.38
2022-10-02T13:25:33.074Z,47.83
2022-10-02T13:28:24.114Z,47.84
2022-10-02T13:31:12.527Z,47.73
2022-10-02T13:33:56.846Z,47.14
2022-10-02T13:36:47.906Z,46.80
2022-10-02T13:39:20.216Z,46.44
2022-10-02T13:42:19.924Z,45.90
2022-10-02T13:45:24.062Z,45.66
2022-10-02T13:47:56.495Z,45.82
2022-10-02T13:51:06.578Z,45.88
2022-10-02T13:53:51.919Z,45.84
2022-10-02T13:56:34.376Z,45.36
2022-10-02T13:59:21.958Z,45.30
2022-10-02T14:02:12.833Z,45.30
2022-10-02T14:04:41.974Z,45.68
2022-10-02T14:07:08.374Z,44.92
2022-10-02T14:09:51.542Z,44.91
2022-10-02T14:12:48.464Z,44.70
2022-10-02T14:15:53.093Z,44.55
2022-10-02T14:18:35.345Z,44.03
2022-10-02T14:21:31.291Z,44.33
2022-10-02T14:24:11.737Z,44.36
2022-10-02T14:26:50.423Z,43.90
2022-10-02T14:29:35.789Z,43.88
2022-10-02T14:32:24.291Z,43.71
2022-10-02T14:35:03.298Z,43.70
2022-10-02T14:37:42.052Z,43.80
2022-10-02T14:40:14.276Z,43.94
2022-10-02T14:42:56.291Z,43.10
2022-10-02T14:46:03.107Z,43.19
2022-10-02T14:48:56.513Z,42.85
2022-10-02T14:51:58.067Z,42.89
2022-10-02T14:54:49.562Z,43.08
2022-10-02T14:57:47.358Z,43.13
2022-10-02T15:00:22.230Z,43.09
2022-10-02T15:03:11.001Z,43.11
2022-10-02T15:05:55.820Z,43.00
2022-10-02T15:08:31.421Z,43.40
2022-10-02T15:10:58.035Z,43.33
2022-10-02T15:13:33.962Z,43.15
2022-10-02T15:16:38.759Z,43.31
2022-10-02T15:19:31.128Z,43.20
2022-10-02T15:22:02.429Z,43.39
2022-10-02T15:24:43.538Z,43.39
2022-10-02T15:27:24.237Z,43.12
2022-10-02T15:29:56.608Z,42.91
2022-10-02T15:32:55.570Z,42.92
2022-10-02T15:36:00.298Z,43.35
2022-10-02T15:38:35.762Z,43.54
2022-10-02T15:41:26.403Z,43.56
2022-10-02T15:44:09.920Z,43.75
2022-10-02T15:46:42.405Z,43.78
2022-10-02T15:49:46.516Z,43.69
2022-10-02T15:52:38.754Z,43.90
2022-10-02T15:55:19.798Z,43.87
2022-10-02T15:57:57.417Z,44.12
2022-10-02T16:00:27.155Z,43.97
2022-10-02T16:03:01.405Z,44.43
2022-10-02T16:06:30.847Z,44.66
2022-10-02T16:09:28.114Z,44.78
2022-10-02T16:12:19.303Z,44.71
2022-10-02T16:14:57.722Z,44.90
2022-10-02T16:17:42.277Z,44.85
2022-10-02T16:20:18.372Z,45.03
2022-10-02T16:23:02.412Z,45.04
2022-10-02T16:25:58.302Z,45.18
2022-10-02T16:28:39.524Z,45.23
2022-10-02T16:31:22.530Z,45.23
2022-10-02T16:34:10.958Z,45.59
2022-10-02T16:36:53.994Z,45.71
2022-10-02T16:39:36.072Z,45.49
2022-10-02T16:42:16.302Z,45.21
2022-10-02T16:45:25.723Z,45.42
2022-10-02T16:48:02.032Z,45.60
2022-10-02T16:50:47.602Z,45.84
2022-10-02T16:53:29.523Z,46.06
2022-10-02T16:56:08.393Z,45.63
2022-10-02T16:59:08.294Z,46.14
2022-10-02T17:02:05.585Z,46.23
2022-10-02T17:05:04.426Z,46.18
2022-10-02T17:07:37.965Z,46.53
2022-10-02T17:10:19.229Z,46.62
2022-10-02T17:13:01.690Z,46.74
2022-10-02T17:15:38.928Z,47.01
2022-10-02T17:18:17.193Z,46.81
2022-10-02T17:20:48.471Z,46.77
2022-10-02T17:23:57.597Z,47.08
2022-10-02T17:26:40.784Z,47.17
2022-10-02T17:29:28.986Z,47.45
2022-10-02T17:32:01.281Z,47.56
2022-10-02T17:34:33.603Z,47.39
2022-10-02T17:37:09.002Z,47.47
2022-10-02T17:39:38.420Z,47.91
2022-10-02T17:42:30.316Z,48.02
2022-10-02T17:45:36.951Z,48.03
2022-10-02T17:48:15.420Z,47.78
2022-10-02T17:51:23.547Z,47.91
2022-10-02T17:54:31.383Z,48.21
2022-10-02T17:57:38.495Z,48.20
2022-10-02T18:00:21.143Z,48.58
2022-10-02T18:02:50.812Z,48.58
2022-10-02T18:05:21.578Z,48.56
2022-10-02T18:08:09.542Z,48.58
2022-10-02T18:10:54.602Z,48.76
2022-10-02T18:13:46.244Z,48.68
2022-10-02T18:16:37.308Z,48.88
2022-10-02T18:19:27.893Z,49.12
2022-10-02T18:22:22.477Z,49.20
2022-10-02T18:24:58.404Z,49.48
2022-10-02T18:27:58.785Z,49.34
2022-10-02T18:30:38.189Z,49.53
2022-10-02T18:33:30.326Z,49.58
2022-10-02T18:36:21.540Z,49.58
2022-10-02T18:39:37.317Z,50.23
2022-10-02T18:42:29.889Z,49.96
2022-10-02T18:45:08.598Z,49.96
2022-10-02T18:47:57.716Z,50.39
2022-10-02T18:50:50.953Z,50.18
2022-10-02T18:53:46.471Z,50.47
2022-10-02T18:56:19.847Z,50.37
2022-10-02T18:59:02.055Z,50.67
2022-10-02T19:01:57.691Z,50.73
2022-10-02T19:05:15.004Z,50.96
2022-10-02T19:07:52.302Z,50.78
2022-10-02T19:10:29.646Z,51.21
2022-10-02T19:13:01.268Z,51.31
2022-10-02T19:15:31.246Z,51.41
2022-10-02T19:18:03.136Z,51.41
2022-10-02T19:20:53.098Z,51.63
2022-10-02T19:23:30.622Z,51.18
2022-10-02T19:26:03.146Z,51.54
2022-10-02T19:28:31.547Z,51.75
2022-10-02T19:31:06.497Z,51.67
2022-10-02T19:33:53.978Z,51.80
2022-10-02T19:36:25.478Z,51.79
2022-10-02T19:38:57.029Z,51.90
2022-10-02T19:41:24.980Z,51.65
2022-10-02T19:44:02.996Z,52.12
2022-10-02T19:46:44.961Z,51.89
2022-10-02T19:49:24.676Z,52.10
2022-10-02T19:51:52.917Z,52.16
2022-10-02T19:54:30.095Z,52.22
2022-10-02T19:57:06.254Z,52.06
2022-10-02T19:59:42.641Z,52.34
2022-10-02T20:02:21.375Z,52.11
2022-10-02T20:04:51.399Z,52.32
2022-10-02T20:07:20.758Z,52.20
2022-10-02T20:09:54.483Z,52.26
2022-10-02T20:12:29.962Z,52.52
2022-10-02T20:15:18.675Z,52.76
2022-10-02T20:17:45.134Z,52.50
2022-10-02T20:20:16.499Z,52.42
2022-10-02T20:22:49.337Z,52.65
2022-10-02T20:25:29.152Z,52.67
2022-10-02T20:28:17.142Z,52.83
2022-10-02T20:31:00.907Z,52.61
2022-10-02T20:33:50.424Z,52.78
2022-10-02T20:36:22.545Z,53.05
2022-10-02T20:38:57.493Z,53.13
2022-10-02T20:41:29.052Z,52.90
2022-10-02T20:44:04.517Z,53.25
2022-10-02T20:46:35.871Z,53.45
2022-10-02T20:49:11.958Z,53.55
2022-10-02T20:52:35.456Z,53.31
2022-10-02T20:55:27.671Z,53.47
2022-10-02T20:58:12.466Z,53.65
2022-10-02T21:01:14.871Z,53.48
2022-10-02T21:07:05.860Z,53.82
2022-10-02T21:10:07.846Z,53.83
2022-10-02T21:12:34.807Z,53.79
2022-10-02T21:15:38.338Z,54.08
2022-10-02T21:18:23.270Z,53.55
2022-10-02T21:21:08.491Z,54.15
2022-10-02T21:24:17.379Z,54.10
2022-10-02T21:26:43.948Z,53.85
2022-10-02T21:29:36.966Z,54.22
2022-10-02T21:32:28.755Z,54.33
2022-10-02T21:34:58.232Z,53.96
2022-10-02T21:37:37.944Z,54.01
2022-10-02T21:40:27.072Z,54.47
2022-10-02T21:43:02.634Z,54.16
2022-10-02T21:45:47.705Z,54.67
2022-10-02T21:48:39.227Z,54.70
2022-10-02T21:51:27.583Z,54.53
2022-10-02T21:54:19.126Z,54.74
2022-10-02T21:57:40.008Z,54.88
2022-10-02T22:00:21.836Z,54.90
2022-10-02T22:03:24.758Z,55.02
2022-10-02T22:06:15.287Z,54.69
2022-10-02T22:09:26.917Z,55.07
2022-10-02T22:12:02.868Z,55.24
2022-10-02T22:14:36.427Z,55.14
2022-10-02T22:17:18.514Z,55.28
2022-10-02T22:20:27.973Z,55.43
2022-10-02T22:23:01.953Z,55.15
2022-10-02T22:25:58.802Z,55.78
2022-10-02T22:28:38.813Z,55.70
2022-10-02T22:31:29.701Z,55.48
2022-10-02T22:34:31.369Z,55.93
2022-10-02T22:37:29.938Z,56.01
2022-10-02T22:40:13.304Z,55.77
2022-10-02T22:42:44.923Z,55.93
2022-10-02T22:45:25.706Z,56.04
2022-10-02T22:47:55.957Z,55.72
2022-10-02T22:50:32.311Z,56.12
2022-10-02T22:53:17.010Z,56.30
2022-10-02T22:55:55.607Z,56.31
2022-10-02T22:58:44.372Z,56.00
2022-10-02T23:01:41.266Z,56.37
2022-10-02T23:04:39.344Z,56.10
2022-10-02T23:07:26.058Z,56.30
2022-10-02T23:09:58.626Z,56.28
2022-10-02T23:12:28.371Z,56.45
2022-10-02T23:15:02.730Z,56.21
2022-10-02T23:17:36.153Z,56.31
2022-10-02T23:20:16.905Z,56.52
2022-10-02T23:22:54.245Z,56.44
2022-10-02T23:25:53.201Z,56.54
2022-10-02T23:28:30.037Z,56.37
2022-10-02T23:31:34.136Z,56.13
2022-10-02T23:34:32.911Z,56.37
2022-10-02T23:37:18.923Z,56.40
2022-10-02T23:39:53.981Z,56.36
2022-10-02T23:42:27.822Z,56.67
2022-10-02T23:45:11.078Z,56.28
2022-10-02T23:47:57.420Z,56.52
2022-10-02T23:50:42.051Z,56.51
2022-10-02T23:53:30.363Z,56.38
2022-10-02T23:56:33.798Z,56.41
2022-10-02T23:59:18.701Z,56.34
